sensor_id;sensor_type;location;lat;lon;timestamp;pressure;altitude;pressure_sealevel;temperature;humidity
78509;BME280;67802;50.846;7.958;2023-05-20T00:01:30;98390.47;;;19.31;34.54
78509;BME280;67802;50.846;7.958;2023-05-20T00:03:55;98398.38;;;19.31;34.46
78509;BME280;67802;50.846;7.958;2023-05-20T00:06:21;98389.53;;;19.32;34.52
78509;BME280;67802;50.846;7.958;2023-05-20T00:08:46;98388.69;;;19.31;34.57
78509;BME280;67802;50.846;7.958;2023-05-20T00:11:12;98384.25;;;19.32;34.72
78509;BME280;67802;50.846;7.958;2023-05-20T00:13:37;98387.72;;;19.32;34.85
78509;BME280;67802;50.846;7.958;2023-05-20T00:16:03;98375.41;;;19.33;34.49
78509;BME280;67802;50.846;7.958;2023-05-20T00:18:29;98375.50;;;19.31;34.64
78509;BME280;67802;50.846;7.958;2023-05-20T00:20:54;98378.88;;;19.33;34.99
78509;BME280;67802;50.846;7.958;2023-05-20T00:23:20;98378.03;;;19.33;34.53
78509;BME280;67802;50.846;7.958;2023-05-20T00:25:45;98378.03;;;19.33;34.66
78509;BME280;67802;50.846;7.958;2023-05-20T00:28:10;98380.69;;;19.33;34.66
78509;BME280;67802;50.846;7.958;2023-05-20T00:30:39;98365.69;;;19.33;34.53
78509;BME280;67802;50.846;7.958;2023-05-20T00:33:05;98365.69;;;19.33;34.57
78509;BME280;67802;50.846;7.958;2023-05-20T00:35:31;98372.66;;;19.34;34.55
78509;BME280;67802;50.846;7.958;2023-05-20T00:37:56;98375.41;;;19.33;34.60
78509;BME280;67802;50.846;7.958;2023-05-20T00:40:21;98370.03;;;19.34;34.84
78509;BME280;67802;50.846;7.958;2023-05-20T00:42:48;98363.06;;;19.33;34.63
78509;BME280;67802;50.846;7.958;2023-05-20T00:45:14;98361.38;;;19.32;34.56
78509;BME280;67802;50.846;7.958;2023-05-20T00:47:39;98359.59;;;19.33;34.50
78509;BME280;67802;50.846;7.958;2023-05-20T00:50:06;98356.13;;;19.32;34.63
78509;BME280;67802;50.846;7.958;2023-05-20T00:52:32;98354.44;;;19.31;34.66
78509;BME280;67802;50.846;7.958;2023-05-20T00:54:58;98349.16;;;19.31;34.75
78509;BME280;67802;50.846;7.958;2023-05-20T00:57:24;98359.69;;;19.31;34.30
78509;BME280;67802;50.846;7.958;2023-05-20T00:59:50;98351.78;;;19.31;34.52
78509;BME280;67802;50.846;7.958;2023-05-20T01:02:15;98349.16;;;19.31;34.65
78509;BME280;67802;50.846;7.958;2023-05-20T01:04:40;98342.22;;;19.30;34.59
78509;BME280;67802;50.846;7.958;2023-05-20T01:07:11;98340.53;;;19.29;34.75
78509;BME280;67802;50.846;7.958;2023-05-20T01:09:37;98344.97;;;19.28;34.67
78509;BME280;67802;50.846;7.958;2023-05-20T01:12:15;98348.56;;;19.27;34.60
78509;BME280;67802;50.846;7.958;2023-05-20T01:14:49;98346.75;;;19.28;34.48
78509;BME280;67802;50.846;7.958;2023-05-20T01:17:17;98349.38;;;19.28;34.76
78509;BME280;67802;50.846;7.958;2023-05-20T01:19:46;98349.38;;;19.28;34.55
78509;BME280;67802;50.846;7.958;2023-05-20T01:22:13;98345.06;;;19.27;34.76
78509;BME280;67802;50.846;7.958;2023-05-20T01:24:43;98331.06;;;19.26;34.60
78509;BME280;67802;50.846;7.958;2023-05-20T01:27:11;98338.09;;;19.26;34.72
78509;BME280;67802;50.846;7.958;2023-05-20T01:29:38;98330.22;;;19.26;34.78
78509;BME280;67802;50.846;7.958;2023-05-20T01:32:05;98333.69;;;19.26;34.85
78509;BME280;67802;50.846;7.958;2023-05-20T01:34:33;98331.16;;;19.25;34.63
78509;BME280;67802;50.846;7.958;2023-05-20T01:37:00;98332.00;;;19.25;34.78
78509;BME280;67802;50.846;7.958;2023-05-20T01:39:28;98325.88;;;19.25;34.75
78509;BME280;67802;50.846;7.958;2023-05-20T01:41:55;98323.25;;;19.25;34.55
78509;BME280;67802;50.846;7.958;2023-05-20T01:44:21;98325.16;;;19.23;34.84
78509;BME280;67802;50.846;7.958;2023-05-20T01:46:49;98326.00;;;19.23;34.65
78509;BME280;67802;50.846;7.958;2023-05-20T01:49:15;98329.59;;;19.22;34.54
78509;BME280;67802;50.846;7.958;2023-05-20T01:51:40;98323.47;;;19.22;34.74
78509;BME280;67802;50.846;7.958;2023-05-20T01:54:05;98322.66;;;19.21;34.86
78509;BME280;67802;50.846;7.958;2023-05-20T01:56:31;98327.06;;;19.21;34.64
78509;BME280;67802;50.846;7.958;2023-05-20T01:58:56;98329.81;;;19.19;34.64
78509;BME280;67802;50.846;7.958;2023-05-20T02:01:21;98317.47;;;19.20;34.64
78509;BME280;67802;50.846;7.958;2023-05-20T02:03:46;98318.41;;;19.19;34.69
78509;BME280;67802;50.846;7.958;2023-05-20T02:06:12;98321.19;;;19.17;34.83
78509;BME280;67802;50.846;7.958;2023-05-20T02:08:37;98308.84;;;19.18;34.65
78509;BME280;67802;50.846;7.958;2023-05-20T02:11:02;98318.63;;;19.16;34.88
78509;BME280;67802;50.846;7.958;2023-05-20T02:13:28;98318.63;;;19.16;34.77
78509;BME280;67802;50.846;7.958;2023-05-20T02:15:53;98319.50;;;19.16;34.85
78509;BME280;67802;50.846;7.958;2023-05-20T02:18:19;98317.81;;;19.15;34.75
78509;BME280;67802;50.846;7.958;2023-05-20T02:20:44;98322.22;;;19.15;34.86
78509;BME280;67802;50.846;7.958;2023-05-20T02:23:09;98310.84;;;19.14;35.02
78509;BME280;67802;50.846;7.958;2023-05-20T02:25:35;98315.28;;;19.13;34.83
78509;BME280;67802;50.846;7.958;2023-05-20T02:28:00;98310.00;;;19.13;34.99
78509;BME280;67802;50.846;7.958;2023-05-20T02:30:26;98310.00;;;19.13;34.91
78509;BME280;67802;50.846;7.958;2023-05-20T02:32:51;98310.84;;;19.14;34.84
78509;BME280;67802;50.846;7.958;2023-05-20T02:35:16;98306.41;;;19.15;35.01
78509;BME280;67802;50.846;7.958;2023-05-20T02:37:42;98304.72;;;19.13;35.10
78509;BME280;67802;50.846;7.958;2023-05-20T02:40:09;98301.16;;;19.15;34.70
78509;BME280;67802;50.846;7.958;2023-05-20T02:42:34;98300.31;;;19.14;34.91
78509;BME280;67802;50.846;7.958;2023-05-20T02:44:59;98302.00;;;19.15;34.90
78509;BME280;67802;50.846;7.958;2023-05-20T02:47:25;98307.28;;;19.15;34.94
78509;BME280;67802;50.846;7.958;2023-05-20T02:49:51;98308.09;;;19.16;34.74
78509;BME280;67802;50.846;7.958;2023-05-20T02:52:16;98301.06;;;19.16;34.82
78509;BME280;67802;50.846;7.958;2023-05-20T02:54:42;98300.94;;;19.18;34.76
78509;BME280;67802;50.846;7.958;2023-05-20T02:57:07;98303.47;;;19.19;34.87
78509;BME280;67802;50.846;7.958;2023-05-20T02:59:32;98300.72;;;19.21;34.87
78509;BME280;67802;50.846;7.958;2023-05-20T03:01:58;98301.56;;;19.21;34.78
78509;BME280;67802;50.846;7.958;2023-05-20T03:04:23;98299.78;;;19.22;34.30
78509;BME280;67802;50.846;7.958;2023-05-20T03:06:50;98297.88;;;19.24;34.86
78509;BME280;67802;50.846;7.958;2023-05-20T03:09:16;98298.59;;;19.26;34.94
78509;BME280;67802;50.846;7.958;2023-05-20T03:11:42;98295.00;;;19.27;34.79
78509;BME280;67802;50.846;7.958;2023-05-20T03:14:08;98291.34;;;19.30;34.77
78509;BME280;67802;50.846;7.958;2023-05-20T03:16:33;98289.53;;;19.30;34.62
78509;BME280;67802;50.846;7.958;2023-05-20T03:18:59;98288.47;;;19.33;34.59
78509;BME280;67802;50.846;7.958;2023-05-20T03:21:25;98291.00;;;19.34;34.72
78509;BME280;67802;50.846;7.958;2023-05-20T03:23:50;98293.41;;;19.37;34.71
78509;BME280;67802;50.846;7.958;2023-05-20T03:26:16;98293.28;;;19.39;34.69
78509;BME280;67802;50.846;7.958;2023-05-20T03:28:41;98295.81;;;19.40;34.53
78509;BME280;67802;50.846;7.958;2023-05-20T03:31:07;98288.66;;;19.42;34.58
78509;BME280;67802;50.846;7.958;2023-05-20T03:33:33;98291.06;;;19.46;34.52
78509;BME280;67802;50.846;7.958;2023-05-20T03:35:59;98287.47;;;19.47;34.61
78509;BME280;67802;50.846;7.958;2023-05-20T03:38:24;98288.22;;;19.49;34.54
78509;BME280;67802;50.846;7.958;2023-05-20T03:40:50;98297.66;;;19.51;34.64
78509;BME280;67802;50.846;7.958;2023-05-20T03:43:15;98292.31;;;19.53;34.69
78509;BME280;67802;50.846;7.958;2023-05-20T03:45:40;98296.50;;;19.55;34.44
78509;BME280;67802;50.846;7.958;2023-05-20T03:48:06;98291.13;;;19.57;34.55
78509;BME280;67802;50.846;7.958;2023-05-20T03:50:31;98289.31;;;19.57;34.53
78509;BME280;67802;50.846;7.958;2023-05-20T03:52:56;98288.38;;;19.58;34.44
78509;BME280;67802;50.846;7.958;2023-05-20T03:55:22;98289.22;;;19.59;34.50
78509;BME280;67802;50.846;7.958;2023-05-20T03:57:47;98284.66;;;19.61;34.44
78509;BME280;67802;50.846;7.958;2023-05-20T04:00:12;98282.88;;;19.62;34.41
78509;BME280;67802;50.846;7.958;2023-05-20T04:02:38;98280.13;;;19.63;34.36
78509;BME280;67802;50.846;7.958;2023-05-20T04:05:04;98284.44;;;19.64;34.33
78509;BME280;67802;50.846;7.958;2023-05-20T04:07:32;98287.81;;;19.66;34.32
78509;BME280;67802;50.846;7.958;2023-05-20T04:09:58;98285.16;;;19.66;34.39
78509;BME280;67802;50.846;7.958;2023-05-20T04:12:23;98286.84;;;19.67;34.46
78509;BME280;67802;50.846;7.958;2023-05-20T04:14:50;98278.00;;;19.68;34.39
78509;BME280;67802;50.846;7.958;2023-05-20T04:17:16;98284.94;;;19.69;34.53
78509;BME280;67802;50.846;7.958;2023-05-20T04:19:41;98274.41;;;19.69;34.42
78509;BME280;67802;50.846;7.958;2023-05-20T04:22:09;98275.25;;;19.70;34.44
78509;BME280;67802;50.846;7.958;2023-05-20T04:24:34;98278.84;;;19.69;34.54
78509;BME280;67802;50.846;7.958;2023-05-20T04:27:02;98274.41;;;19.69;34.38
78509;BME280;67802;50.846;7.958;2023-05-20T04:29:27;98278.84;;;19.69;34.46
78509;BME280;67802;50.846;7.958;2023-05-20T04:31:54;98279.66;;;19.69;34.54
78509;BME280;67802;50.846;7.958;2023-05-20T04:34:22;98273.56;;;19.69;34.47
78509;BME280;67802;50.846;7.958;2023-05-20T04:36:50;98284.94;;;19.69;34.48
78509;BME280;67802;50.846;7.958;2023-05-20T04:39:16;98284.94;;;19.69;34.24
78509;BME280;67802;50.846;7.958;2023-05-20T04:41:43;98287.56;;;19.69;34.54
78509;BME280;67802;50.846;7.958;2023-05-20T04:44:08;98291.06;;;19.70;34.57
78509;BME280;67802;50.846;7.958;2023-05-20T04:46:33;98290.22;;;19.69;34.70
78509;BME280;67802;50.846;7.958;2023-05-20T04:48:58;98290.22;;;19.69;34.61
78509;BME280;67802;50.846;7.958;2023-05-20T04:51:24;98294.53;;;19.70;34.60
78509;BME280;67802;50.846;7.958;2023-05-20T04:53:49;98286.63;;;19.70;34.64
78509;BME280;67802;50.846;7.958;2023-05-20T04:56:15;98282.22;;;19.71;34.68
78509;BME280;67802;50.846;7.958;2023-05-20T04:58:40;98290.94;;;19.71;34.29
78509;BME280;67802;50.846;7.958;2023-05-20T05:01:05;98283.03;;;19.71;34.61
78509;BME280;67802;50.846;7.958;2023-05-20T05:03:30;98284.72;;;19.72;34.55
78509;BME280;67802;50.846;7.958;2023-05-20T05:05:56;98284.72;;;19.72;34.50
78509;BME280;67802;50.846;7.958;2023-05-20T05:08:22;98279.44;;;19.72;34.53
78509;BME280;67802;50.846;7.958;2023-05-20T05:10:47;98279.44;;;19.72;34.68
78509;BME280;67802;50.846;7.958;2023-05-20T05:13:13;98271.53;;;19.72;34.63
78509;BME280;67802;50.846;7.958;2023-05-20T05:15:38;98272.38;;;19.73;34.63
78509;BME280;67802;50.846;7.958;2023-05-20T05:18:03;98275.03;;;19.73;34.57
78509;BME280;67802;50.846;7.958;2023-05-20T05:20:28;98271.44;;;19.74;34.57
78509;BME280;67802;50.846;7.958;2023-05-20T05:22:54;98267.84;;;19.75;34.65
78509;BME280;67802;50.846;7.958;2023-05-20T05:25:19;98262.56;;;19.75;34.60
78509;BME280;67802;50.846;7.958;2023-05-20T05:27:44;98263.53;;;19.74;34.46
78509;BME280;67802;50.846;7.958;2023-05-20T05:30:11;98263.41;;;19.76;34.43
78509;BME280;67802;50.846;7.958;2023-05-20T05:32:37;98263.41;;;19.76;34.68
78509;BME280;67802;50.846;7.958;2023-05-20T05:35:02;98263.41;;;19.76;34.58
78509;BME280;67802;50.846;7.958;2023-05-20T05:37:28;98266.16;;;19.74;34.75
78509;BME280;67802;50.846;7.958;2023-05-20T05:39:53;98267.94;;;19.73;34.70
78509;BME280;67802;50.846;7.958;2023-05-20T05:42:18;98259.09;;;19.75;34.81
78509;BME280;67802;50.846;7.958;2023-05-20T05:44:44;98270.59;;;19.73;34.75
78509;BME280;67802;50.846;7.958;2023-05-20T05:47:09;98267.94;;;19.73;34.35
78509;BME280;67802;50.846;7.958;2023-05-20T05:49:34;98268.91;;;19.72;34.74
78509;BME280;67802;50.846;7.958;2023-05-20T05:52:00;98279.44;;;19.72;34.58
78509;BME280;67802;50.846;7.958;2023-05-20T05:54:25;98272.50;;;19.71;34.82
78509;BME280;67802;50.846;7.958;2023-05-20T05:56:51;98262.81;;;19.72;34.90
78509;BME280;67802;50.846;7.958;2023-05-20T05:59:18;98267.22;;;19.71;34.62
78509;BME280;67802;50.846;7.958;2023-05-20T06:01:44;98270.81;;;19.70;34.84
78509;BME280;67802;50.846;7.958;2023-05-20T06:04:09;98260.25;;;19.70;34.72
78509;BME280;67802;50.846;7.958;2023-05-20T06:06:34;98258.59;;;19.69;34.78
78509;BME280;67802;50.846;7.958;2023-05-20T06:09:00;98262.91;;;19.70;34.76
78509;BME280;67802;50.846;7.958;2023-05-20T06:11:25;98260.25;;;19.70;34.71
78509;BME280;67802;50.846;7.958;2023-05-20T06:13:50;98260.25;;;19.70;34.75
78509;BME280;67802;50.846;7.958;2023-05-20T06:16:16;98255.00;;;19.70;34.83
78509;BME280;67802;50.846;7.958;2023-05-20T06:18:41;98255.00;;;19.70;34.92
78509;BME280;67802;50.846;7.958;2023-05-20T06:21:07;98248.03;;;19.69;34.98
78509;BME280;67802;50.846;7.958;2023-05-20T06:23:32;98248.91;;;19.70;34.86
78509;BME280;67802;50.846;7.958;2023-05-20T06:25:58;98248.03;;;19.69;34.99
78509;BME280;67802;50.846;7.958;2023-05-20T06:28:23;98251.63;;;19.68;35.03
78509;BME280;67802;50.846;7.958;2023-05-20T06:30:49;98254.25;;;19.68;34.96
78509;BME280;67802;50.846;7.958;2023-05-20T06:33:14;98252.50;;;19.69;34.99
78509;BME280;67802;50.846;7.958;2023-05-20T06:35:40;98246.34;;;19.68;35.15
78509;BME280;67802;50.846;7.958;2023-05-20T06:38:06;98245.53;;;19.68;35.23
78509;BME280;67802;50.846;7.958;2023-05-20T06:40:31;98243.72;;;19.68;35.00
78509;BME280;67802;50.846;7.958;2023-05-20T06:42:56;98238.44;;;19.68;35.15
78509;BME280;67802;50.846;7.958;2023-05-20T06:45:22;98236.66;;;19.69;35.22
78509;BME280;67802;50.846;7.958;2023-05-20T06:47:47;98239.41;;;19.67;35.27
78509;BME280;67802;50.846;7.958;2023-05-20T06:50:14;98242.03;;;19.67;35.41
78509;BME280;67802;50.846;7.958;2023-05-20T06:52:39;98239.41;;;19.67;35.74
78509;BME280;67802;50.846;7.958;2023-05-20T06:55:05;98229.09;;;19.64;35.64
78509;BME280;67802;50.846;7.958;2023-05-20T06:57:31;98241.53;;;19.62;35.74
78509;BME280;67802;50.846;7.958;2023-05-20T06:59:56;98234.59;;;19.61;35.76
78509;BME280;67802;50.846;7.958;2023-05-20T07:02:21;98241.78;;;19.59;35.79
78509;BME280;67802;50.846;7.958;2023-05-20T07:04:47;98224.31;;;19.58;35.78
78509;BME280;67802;50.846;7.958;2023-05-20T07:07:12;98236.75;;;19.56;35.84
78509;BME280;67802;50.846;7.958;2023-05-20T07:09:38;98234.22;;;19.54;35.82
78509;BME280;67802;50.846;7.958;2023-05-20T07:12:03;98229.78;;;19.55;35.79
78509;BME280;67802;50.846;7.958;2023-05-20T07:14:29;98230.75;;;19.54;35.85
78509;BME280;67802;50.846;7.958;2023-05-20T07:16:54;98225.47;;;19.54;35.88
78509;BME280;67802;50.846;7.958;2023-05-20T07:19:19;98226.44;;;19.53;35.96
78509;BME280;67802;50.846;7.958;2023-05-20T07:21:45;98227.38;;;19.52;36.03
78509;BME280;67802;50.846;7.958;2023-05-20T07:24:10;98220.66;;;19.48;36.19
78509;BME280;67802;50.846;7.958;2023-05-20T07:26:35;98221.63;;;19.47;36.40
78509;BME280;67802;50.846;7.958;2023-05-20T07:29:03;98218.25;;;19.45;36.38
78509;BME280;67802;50.846;7.958;2023-05-20T07:31:29;98215.72;;;19.43;36.81
78509;BME280;67802;50.846;7.958;2023-05-20T07:33:55;98215.94;;;19.40;36.63
78509;BME280;67802;50.846;7.958;2023-05-20T07:36:20;98213.44;;;19.38;36.66
78509;BME280;67802;50.846;7.958;2023-05-20T07:38:46;98211.75;;;19.37;36.74
78509;BME280;67802;50.846;7.958;2023-05-20T07:41:11;98217.97;;;19.36;36.73
78509;BME280;67802;50.846;7.958;2023-05-20T07:43:36;98209.34;;;19.34;36.70
78509;BME280;67802;50.846;7.958;2023-05-20T07:46:01;98215.34;;;19.36;36.66
78509;BME280;67802;50.846;7.958;2023-05-20T07:48:27;98209.34;;;19.34;36.76
78509;BME280;67802;50.846;7.958;2023-05-20T07:50:52;98210.16;;;19.35;36.78
78509;BME280;67802;50.846;7.958;2023-05-20T07:53:18;98214.59;;;19.34;37.01
78509;BME280;67802;50.846;7.958;2023-05-20T07:55:44;98203.34;;;19.32;36.82
78509;BME280;67802;50.846;7.958;2023-05-20T07:58:09;98205.16;;;19.32;36.92
78509;BME280;67802;50.846;7.958;2023-05-20T08:00:34;98206.19;;;19.29;37.16
78509;BME280;67802;50.846;7.958;2023-05-20T08:03:00;98194.94;;;19.27;37.01
78509;BME280;67802;50.846;7.958;2023-05-20T08:05:25;98202.97;;;19.25;37.23
78509;BME280;67802;50.846;7.958;2023-05-20T08:07:50;98202.09;;;19.25;37.22
78509;BME280;67802;50.846;7.958;2023-05-20T08:10:16;98198.75;;;19.23;37.29
78509;BME280;67802;50.846;7.958;2023-05-20T08:12:41;98204.97;;;19.22;37.27
78509;BME280;67802;50.846;7.958;2023-05-20T08:15:07;98206.84;;;19.20;37.54
78509;BME280;67802;50.846;7.958;2023-05-20T08:17:32;98211.31;;;19.19;37.60
78509;BME280;67802;50.846;7.958;2023-05-20T08:19:57;98212.25;;;19.18;37.59
78509;BME280;67802;50.846;7.958;2023-05-20T08:22:23;98202.75;;;19.16;37.70
78509;BME280;67802;50.846;7.958;2023-05-20T08:24:48;98203.63;;;19.16;37.85
78509;BME280;67802;50.846;7.958;2023-05-20T08:27:13;98198.44;;;19.15;37.66
78509;BME280;67802;50.846;7.958;2023-05-20T08:29:39;98204.66;;;19.13;37.71
78509;BME280;67802;50.846;7.958;2023-05-20T08:32:04;98204.66;;;19.13;37.65
78509;BME280;67802;50.846;7.958;2023-05-20T08:34:29;98205.75;;;19.11;37.45
78509;BME280;67802;50.846;7.958;2023-05-20T08:36:55;98199.63;;;19.10;37.55
78509;BME280;67802;50.846;7.958;2023-05-20T08:39:21;98209.34;;;19.10;37.70
78509;BME280;67802;50.846;7.958;2023-05-20T08:41:47;98212.06;;;19.08;37.59
78509;BME280;67802;50.846;7.958;2023-05-20T08:44:12;98203.47;;;19.06;37.83
78509;BME280;67802;50.846;7.958;2023-05-20T08:46:38;98200.91;;;19.05;37.92
78509;BME280;67802;50.846;7.958;2023-05-20T08:49:04;98213.25;;;19.04;37.94
78509;BME280;67802;50.846;7.958;2023-05-20T08:51:32;98204.50;;;19.04;37.75
78509;BME280;67802;50.846;7.958;2023-05-20T08:54:01;98208.72;;;19.06;37.72
78509;BME280;67802;50.846;7.958;2023-05-20T08:56:26;98211.44;;;19.05;37.77
78509;BME280;67802;50.846;7.958;2023-05-20T08:58:52;98209.56;;;19.07;37.53
78509;BME280;67802;50.846;7.958;2023-05-20T09:01:18;98208.72;;;19.06;37.64
78509;BME280;67802;50.846;7.958;2023-05-20T09:03:43;98210.41;;;19.07;37.49
78509;BME280;67802;50.846;7.958;2023-05-20T09:06:08;98210.41;;;19.07;37.52
78509;BME280;67802;50.846;7.958;2023-05-20T09:08:34;98217.31;;;19.08;37.69
78509;BME280;67802;50.846;7.958;2023-05-20T09:11:00;98209.44;;;19.08;37.46
78509;BME280;67802;50.846;7.958;2023-05-20T09:13:26;98209.44;;;19.08;37.62
78509;BME280;67802;50.846;7.958;2023-05-20T09:15:52;98206.78;;;19.08;37.90
78509;BME280;67802;50.846;7.958;2023-05-20T09:18:17;98201.66;;;19.07;38.09
78509;BME280;67802;50.846;7.958;2023-05-20T09:20:46;98199.03;;;19.07;38.38
78509;BME280;67802;50.846;7.958;2023-05-20T09:23:11;98186.06;;;19.04;38.32
78509;BME280;67802;50.846;7.958;2023-05-20T09:25:37;98191.47;;;19.02;38.54
78509;BME280;67802;50.846;7.958;2023-05-20T09:28:06;98192.41;;;19.01;38.79
78509;BME280;67802;50.846;7.958;2023-05-20T09:30:32;98188.09;;;19.00;38.61
78509;BME280;67802;50.846;7.958;2023-05-20T09:32:59;98196.81;;;19.01;38.60
78509;BME280;67802;50.846;7.958;2023-05-20T09:35:26;98205.56;;;19.01;38.63
78509;BME280;67802;50.846;7.958;2023-05-20T09:37:56;98198.41;;;19.03;38.68
78509;BME280;67802;50.846;7.958;2023-05-20T09:40:28;98197.56;;;19.03;38.75
78509;BME280;67802;50.846;7.958;2023-05-20T09:42:55;98196.59;;;19.04;38.72
78509;BME280;67802;50.846;7.958;2023-05-20T09:45:22;98192.19;;;19.04;38.66
78509;BME280;67802;50.846;7.958;2023-05-20T09:47:50;98193.88;;;19.05;38.45
78509;BME280;67802;50.846;7.958;2023-05-20T09:50:16;98185.84;;;19.07;38.78
78509;BME280;67802;50.846;7.958;2023-05-20T09:52:46;98194.59;;;19.07;38.75
78509;BME280;67802;50.846;7.958;2023-05-20T09:55:12;98183.22;;;19.07;39.09
78509;BME280;67802;50.846;7.958;2023-05-20T09:57:38;98187.66;;;19.06;39.47
78509;BME280;67802;50.846;7.958;2023-05-20T10:00:04;98189.56;;;19.04;39.33
78509;BME280;67802;50.846;7.958;2023-05-20T10:02:31;98193.25;;;19.02;39.53
78509;BME280;67802;50.846;7.958;2023-05-20T10:04:58;98200.31;;;19.01;39.50
78509;BME280;67802;50.846;7.958;2023-05-20T10:07:54;98188.94;;;19.01;39.82
78509;BME280;67802;50.846;7.958;2023-05-20T10:10:31;98201.25;;;19.00;39.80
78509;BME280;67802;50.846;7.958;2023-05-20T10:13:08;98202.22;;;18.99;39.75
78509;BME280;67802;50.846;7.958;2023-05-20T10:15:58;98192.63;;;18.98;39.80
78509;BME280;67802;50.846;7.958;2023-05-20T10:20:53;98190.81;;;18.98;39.64
78509;BME280;67802;50.846;7.958;2023-05-20T10:23:22;98191.69;;;18.99;39.85
78509;BME280;67802;50.846;7.958;2023-05-20T10:25:52;98179.34;;;19.00;39.98
78509;BME280;67802;50.846;7.958;2023-05-20T10:28:30;98181.16;;;18.99;40.56
78509;BME280;67802;50.846;7.958;2023-05-20T10:30:56;98177.78;;;18.97;40.84
78509;BME280;67802;50.846;7.958;2023-05-20T10:33:24;98174.31;;;18.96;40.72
78509;BME280;67802;50.846;7.958;2023-05-20T10:35:50;98172.31;;;19.00;40.40
78509;BME280;67802;50.846;7.958;2023-05-20T10:38:16;98177.13;;;19.06;40.52
78509;BME280;67802;50.846;7.958;2023-05-20T10:40:42;98173.06;;;19.13;40.29
78509;BME280;67802;50.846;7.958;2023-05-20T10:43:32;98169.91;;;19.21;40.27
78509;BME280;67802;50.846;7.958;2023-05-20T10:45:57;98171.22;;;19.27;40.17
78509;BME280;67802;50.846;7.958;2023-05-20T10:48:24;98169.09;;;19.32;40.23
78509;BME280;67802;50.846;7.958;2023-05-20T10:50:50;98156.53;;;19.36;40.23
78509;BME280;67802;50.846;7.958;2023-05-20T10:53:21;98154.75;;;19.36;40.60
78509;BME280;67802;50.846;7.958;2023-05-20T10:55:48;98157.38;;;19.36;40.59
78509;BME280;67802;50.846;7.958;2023-05-20T10:58:17;98160.00;;;19.36;40.25
78509;BME280;67802;50.846;7.958;2023-05-20T11:00:43;98160.84;;;19.37;40.29
78509;BME280;67802;50.846;7.958;2023-05-20T11:03:09;98167.69;;;19.39;40.67
78509;BME280;67802;50.846;7.958;2023-05-20T11:05:38;98165.78;;;19.41;40.65
78509;BME280;67802;50.846;7.958;2023-05-20T11:08:05;98162.28;;;19.41;40.59
78509;BME280;67802;50.846;7.958;2023-05-20T11:10:33;98161.47;;;19.40;40.48
78509;BME280;67802;50.846;7.958;2023-05-20T11:13:00;98165.06;;;19.39;40.60
78509;BME280;67802;50.846;7.958;2023-05-20T11:15:25;98154.53;;;19.39;40.36
78509;BME280;67802;50.846;7.958;2023-05-20T11:17:55;98161.47;;;19.40;40.32
78509;BME280;67802;50.846;7.958;2023-05-20T11:20:22;98150.94;;;19.40;40.26
78509;BME280;67802;50.846;7.958;2023-05-20T11:22:49;98164.09;;;19.40;39.87
78509;BME280;67802;50.846;7.958;2023-05-20T11:25:16;98163.16;;;19.41;39.78
78509;BME280;67802;50.846;7.958;2023-05-20T11:27:42;98153.34;;;19.43;39.85
78509;BME280;67802;50.846;7.958;2023-05-20T11:30:08;98147.84;;;19.47;40.11
78509;BME280;67802;50.846;7.958;2023-05-20T11:32:35;98141.38;;;19.51;39.92
78509;BME280;67802;50.846;7.958;2023-05-20T11:35:00;98138.53;;;19.54;40.16
78509;BME280;67802;50.846;7.958;2023-05-20T11:37:26;98141.88;;;19.56;40.22
78509;BME280;67802;50.846;7.958;2023-05-20T11:40:03;98155.78;;;19.58;40.01
78509;BME280;67802;50.846;7.958;2023-05-20T11:42:32;98148.59;;;19.60;39.98
78509;BME280;67802;50.846;7.958;2023-05-20T11:44:59;98150.25;;;19.61;40.30
78509;BME280;67802;50.846;7.958;2023-05-20T11:47:25;98155.28;;;19.64;40.10
78509;BME280;67802;50.846;7.958;2023-05-20T11:49:55;98152.56;;;19.66;40.04
78509;BME280;67802;50.846;7.958;2023-05-20T11:52:20;98154.25;;;19.67;39.88
78509;BME280;67802;50.846;7.958;2023-05-20T11:54:51;98157.59;;;19.69;39.84
78509;BME280;67802;50.846;7.958;2023-05-20T11:57:17;98147.88;;;19.69;40.06
78509;BME280;67802;50.846;7.958;2023-05-20T11:59:43;98149.56;;;19.70;39.82
78509;BME280;67802;50.846;7.958;2023-05-20T12:02:08;98139.03;;;19.70;39.90
78509;BME280;67802;50.846;7.958;2023-05-20T12:04:34;98140.84;;;19.70;39.96
78509;BME280;67802;50.846;7.958;2023-05-20T12:06:59;98145.97;;;19.71;39.84
78509;BME280;67802;50.846;7.958;2023-05-20T12:09:25;98137.13;;;19.72;39.88
78509;BME280;67802;50.846;7.958;2023-05-20T12:11:50;98146.69;;;19.73;39.69
78509;BME280;67802;50.846;7.958;2023-05-20T12:14:16;98138.78;;;19.73;39.61
78509;BME280;67802;50.846;7.958;2023-05-20T12:16:41;98147.66;;;19.72;39.84
78509;BME280;67802;50.846;7.958;2023-05-20T12:19:06;98139.03;;;19.70;39.68
78509;BME280;67802;50.846;7.958;2023-05-20T12:21:33;98145.38;;;19.68;39.69
78509;BME280;67802;50.846;7.958;2023-05-20T12:23:58;98138.53;;;19.65;39.44
78509;BME280;67802;50.846;7.958;2023-05-20T12:26:26;98136.84;;;19.64;39.79
78509;BME280;67802;50.846;7.958;2023-05-20T12:28:52;98131.72;;;19.63;39.87
78509;BME280;67802;50.846;7.958;2023-05-20T12:31:17;98129.19;;;19.61;39.63
78509;BME280;67802;50.846;7.958;2023-05-20T12:33:43;98127.53;;;19.60;39.49
78509;BME280;67802;50.846;7.958;2023-05-20T12:36:08;98131.94;;;19.60;39.67
78509;BME280;67802;50.846;7.958;2023-05-20T12:38:34;98136.38;;;19.59;39.69
78509;BME280;67802;50.846;7.958;2023-05-20T12:40:59;98122.50;;;19.57;39.78
78509;BME280;67802;50.846;7.958;2023-05-20T12:43:24;98119.13;;;19.55;39.79
78509;BME280;67802;50.846;7.958;2023-05-20T12:45:50;98124.50;;;19.53;39.79
78509;BME280;67802;50.846;7.958;2023-05-20T12:48:16;98130.84;;;19.51;40.01
78509;BME280;67802;50.846;7.958;2023-05-20T12:50:42;98137.06;;;19.50;39.91
78509;BME280;67802;50.846;7.958;2023-05-20T12:53:07;98121.50;;;19.47;39.85
78509;BME280;67802;50.846;7.958;2023-05-20T12:55:33;98120.63;;;19.46;40.14
78509;BME280;67802;50.846;7.958;2023-05-20T12:57:58;98118.13;;;19.45;40.15